Time;durP1;ratioP1;P1;durP2;ratioP2;P2;SDS_P1;SDS_P2;PMS_P1;PMS_P2;Temp;Humidity;BMP_temperature;BMP_pressure;BME280_temperature;BME280_humidity;BME280_pressure;Samples;Min_cycle;Max_cycle;Signal;HPM_P1;HPM_P2
2021/12/11 00:00:22;;;;;;;28.00;16.88;;;;;;;;;;4955972;28;20039;-66
2021/12/11 00:03:07;;;;;;;31.17;16.70;;;;;;;;;;4957444;28;20126;-66
2021/12/11 00:05:34;;;;;;;32.72;15.88;;;;;;;;;;4954927;28;20111;-66
2021/12/11 00:08:00;;;;;;;29.70;16.15;;;;;;;;;;4954349;28;20035;-66
2021/12/11 00:10:36;;;;;;;36.90;17.45;;;;;;;;;;4956261;28;20043;-66
2021/12/11 00:13:06;;;;;;;27.40;15.23;;;;;;;;;;4958777;28;20074;-66
2021/12/11 00:15:34;;;;;;;28.95;16.40;;;;;;;;;;4955553;28;20062;-66
2021/12/11 00:18:01;;;;;;;26.67;15.48;;;;;;;;;;4961139;28;20047;-66
2021/12/11 00:20:31;;;;;;;26.60;15.00;;;;;;;;;;4955073;28;20074;-66
2021/12/11 00:22:57;;;;;;;27.45;15.18;;;;;;;;;;4962018;28;20039;-66
2021/12/11 00:25:23;;;;;;;24.52;13.90;;;;;;;;;;4953841;28;20043;-66
2021/12/11 00:27:51;;;;;;;28.38;15.20;;;;;;;;;;4956304;28;20066;-66
2021/12/11 00:30:22;;;;;;;28.90;14.23;;;;;;;;;;4955839;28;20051;-66
2021/12/11 00:32:48;;;;;;;24.88;15.13;;;;;;;;;;4954865;28;20039;-66
2021/12/11 00:35:20;;;;;;;24.60;14.75;;;;;;;;;;4954386;28;20054;-66
2021/12/11 00:37:47;;;;;;;32.40;15.82;;;;;;;;;;4959465;28;20062;-67
2021/12/11 00:40:24;;;;;;;24.95;14.25;;;;;;;;;;4955711;28;20058;-66
2021/12/11 00:42:52;;;;;;;25.38;14.60;;;;;;;;;;4953455;28;20046;-67
2021/12/11 00:45:19;;;;;;;27.40;14.82;;;;;;;;;;4956300;28;20043;-67
2021/12/11 00:47:57;;;;;;;26.90;14.95;;;;;;;;;;4957502;28;20090;-66
2021/12/11 00:50:27;;;;;;;24.27;14.50;;;;;;;;;;4953229;28;20043;-66
2021/12/11 00:52:55;;;;;;;25.05;14.27;;;;;;;;;;4951134;28;20050;-67
2021/12/11 00:55:26;;;;;;;28.50;14.63;;;;;;;;;;4959768;28;20126;-67
2021/12/11 00:58:10;;;;;;;29.70;14.98;;;;;;;;;;4958382;28;20447;-67
2021/12/11 01:00:40;;;;;;;23.38;13.05;;;;;;;;;;4959248;28;20035;-67
2021/12/11 01:03:07;;;;;;;25.17;13.88;;;;;;;;;;4954462;28;20617;-65
2021/12/11 01:05:34;;;;;;;23.42;13.82;;;;;;;;;;4956779;28;20476;-65
2021/12/11 01:08:01;;;;;;;27.40;14.52;;;;;;;;;;4959107;28;20126;-66
2021/12/11 01:10:28;;;;;;;25.70;14.32;;;;;;;;;;4960837;28;20046;-66
2021/12/11 01:13:00;;;;;;;25.80;14.52;;;;;;;;;;4961109;28;20035;-65
2021/12/11 01:15:32;;;;;;;22.05;14.02;;;;;;;;;;4961539;28;20039;-65
2021/12/11 01:20:51;;;;;;;25.58;14.63;;;;;;;;;;4954386;28;20046;-65
2021/12/11 01:23:34;;;;;;;23.45;13.38;;;;;;;;;;4961018;28;20081;-66
2021/12/11 01:26:03;;;;;;;28.35;15.43;;;;;;;;;;4961773;28;20055;-66
2021/12/11 01:28:29;;;;;;;25.00;14.60;;;;;;;;;;4971727;28;20117;-66
2021/12/11 01:30:56;;;;;;;24.15;14.43;;;;;;;;;;4963747;28;20114;-66
2021/12/11 01:33:24;;;;;;;26.60;14.70;;;;;;;;;;4958144;28;20042;-65
2021/12/11 01:35:50;;;;;;;28.08;13.70;;;;;;;;;;4966914;28;20134;-65
2021/12/11 01:38:22;;;;;;;23.48;13.88;;;;;;;;;;4957931;28;20376;-65
2021/12/11 01:40:50;;;;;;;23.77;13.75;;;;;;;;;;4965612;28;20047;-66
2021/12/11 01:43:16;;;;;;;29.42;14.68;;;;;;;;;;4962451;28;20035;-65
2021/12/11 01:45:46;;;;;;;25.27;14.45;;;;;;;;;;4958205;28;20051;-66
2021/12/11 01:48:16;;;;;;;24.33;14.35;;;;;;;;;;4959713;28;20068;-66
2021/12/11 01:50:45;;;;;;;24.92;14.90;;;;;;;;;;4958945;28;20039;-65
2021/12/11 01:53:18;;;;;;;25.67;14.32;;;;;;;;;;4958911;28;20042;-65
2021/12/11 01:55:47;;;;;;;27.33;14.00;;;;;;;;;;4956405;28;20058;-66
2021/12/11 01:58:14;;;;;;;22.50;13.52;;;;;;;;;;4954810;28;20035;-66
2021/12/11 02:00:46;;;;;;;23.38;14.57;;;;;;;;;;4959317;28;20054;-66
2021/12/11 02:03:15;;;;;;;24.42;15.02;;;;;;;;;;4950673;28;20047;-66
2021/12/11 02:05:42;;;;;;;23.92;14.75;;;;;;;;;;4959584;28;20059;-66
2021/12/11 02:08:11;;;;;;;27.38;14.68;;;;;;;;;;4964163;28;20039;-66
2021/12/11 02:10:39;;;;;;;24.17;14.13;;;;;;;;;;4966333;28;20043;-65
2021/12/11 02:13:07;;;;;;;31.23;15.40;;;;;;;;;;4959933;28;20043;-65
2021/12/11 02:15:37;;;;;;;25.30;14.75;;;;;;;;;;4956298;28;20047;-65
2021/12/11 02:18:11;;;;;;;24.95;15.18;;;;;;;;;;4957545;28;20067;-66
2021/12/11 02:20:57;;;;;;;23.35;14.52;;;;;;;;;;4955827;28;20066;-66
2021/12/11 02:23:25;;;;;;;23.77;14.90;;;;;;;;;;4957826;28;20248;-66
2021/12/11 02:25:52;;;;;;;24.38;14.95;;;;;;;;;;4959343;28;20499;-66
2021/12/11 02:28:37;;;;;;;27.00;14.60;;;;;;;;;;4957747;28;20051;-66
2021/12/11 02:31:17;;;;;;;25.67;14.63;;;;;;;;;;4959067;28;20114;-66
2021/12/11 02:33:46;;;;;;;29.80;16.17;;;;;;;;;;4958559;28;20320;-66
2021/12/11 02:36:15;;;;;;;27.85;15.52;;;;;;;;;;4960066;28;20057;-66
2021/12/11 02:38:53;;;;;;;27.83;15.88;;;;;;;;;;4957721;28;20080;-66
2021/12/11 02:41:36;;;;;;;26.05;15.10;;;;;;;;;;4958100;28;20058;-66
2021/12/11 02:44:08;;;;;;;24.92;15.07;;;;;;;;;;4959953;28;20498;-66
2021/12/11 02:46:40;;;;;;;26.27;14.18;;;;;;;;;;4957604;28;20051;-66
2021/12/11 02:49:06;;;;;;;24.60;14.38;;;;;;;;;;4957842;28;20054;-66
2021/12/11 02:51:32;;;;;;;23.13;14.02;;;;;;;;;;4976433;28;20356;-66
2021/12/11 02:54:01;;;;;;;24.08;14.20;;;;;;;;;;4956058;28;20053;-66
2021/12/11 02:56:31;;;;;;;27.50;14.10;;;;;;;;;;4954493;28;20075;-66
2021/12/11 02:58:58;;;;;;;25.20;14.23;;;;;;;;;;4953202;28;20129;-66
2021/12/11 03:01:27;;;;;;;22.90;14.50;;;;;;;;;;4942901;28;20113;-66
2021/12/11 03:04:01;;;;;;;21.98;13.60;;;;;;;;;;4959910;28;20047;-66
2021/12/11 03:06:36;;;;;;;24.80;14.02;;;;;;;;;;4957672;28;20058;-66
2021/12/11 03:09:03;;;;;;;22.98;13.68;;;;;;;;;;4954614;28;20483;-66
2021/12/11 03:11:30;;;;;;;20.13;13.50;;;;;;;;;;4940691;28;20221;-66
2021/12/11 03:13:58;;;;;;;22.58;13.48;;;;;;;;;;4960737;28;20039;-66
2021/12/11 03:16:26;;;;;;;24.75;14.60;;;;;;;;;;4959208;28;20039;-66
2021/12/11 03:18:52;;;;;;;21.30;13.73;;;;;;;;;;4957113;28;20035;-66
2021/12/11 03:21:19;;;;;;;21.45;13.60;;;;;;;;;;4957335;28;20035;-66
2021/12/11 03:23:46;;;;;;;22.05;14.35;;;;;;;;;;4955875;28;20555;-66
2021/12/11 03:26:12;;;;;;;20.15;12.68;;;;;;;;;;4963062;28;20046;-66
2021/12/11 03:28:39;;;;;;;21.25;12.80;;;;;;;;;;4953439;28;20046;-66
2021/12/11 03:31:06;;;;;;;25.40;14.40;;;;;;;;;;4955886;28;20051;-66
2021/12/11 03:33:35;;;;;;;22.27;13.80;;;;;;;;;;4955749;28;20093;-66
2021/12/11 03:36:02;;;;;;;21.48;12.75;;;;;;;;;;4960882;28;20089;-66
2021/12/11 03:38:29;;;;;;;20.83;12.55;;;;;;;;;;4957888;28;20061;-66
2021/12/11 03:40:55;;;;;;;21.58;13.52;;;;;;;;;;4959002;28;20106;-66
2021/12/11 03:43:22;;;;;;;22.73;13.23;;;;;;;;;;4956841;28;20051;-66
2021/12/11 03:45:51;;;;;;;25.48;13.75;;;;;;;;;;4959012;28;20046;-66
2021/12/11 03:48:20;;;;;;;19.65;12.18;;;;;;;;;;4964760;28;20055;-66
2021/12/11 03:50:47;;;;;;;22.75;13.32;;;;;;;;;;4955282;28;20138;-66
2021/12/11 03:53:14;;;;;;;23.42;13.23;;;;;;;;;;4953688;28;20408;-66
2021/12/11 03:55:47;;;;;;;23.25;13.13;;;;;;;;;;4950455;28;20058;-66
2021/12/11 03:58:13;;;;;;;17.65;11.50;;;;;;;;;;4951220;28;20468;-66
2021/12/11 04:01:08;;;;;;;21.65;12.77;;;;;;;;;;4957864;28;20038;-66
2021/12/11 04:03:36;;;;;;;25.70;13.57;;;;;;;;;;4937003;28;20138;-66
2021/12/11 04:06:05;;;;;;;20.77;12.98;;;;;;;;;;4962602;28;20053;-66
2021/12/11 04:08:40;;;;;;;22.63;12.48;;;;;;;;;;4953512;28;20676;-66
2021/12/11 04:11:07;;;;;;;23.92;13.15;;;;;;;;;;4955394;28;20400;-66
2021/12/11 04:13:33;;;;;;;20.27;12.65;;;;;;;;;;4959892;28;20463;-66
2021/12/11 04:15:59;;;;;;;20.38;12.45;;;;;;;;;;4960274;28;20490;-67
2021/12/11 04:18:26;;;;;;;23.33;13.10;;;;;;;;;;4963759;28;21057;-67
2021/12/11 04:20:52;;;;;;;20.00;12.00;;;;;;;;;;4959377;28;20042;-67
2021/12/11 04:23:20;;;;;;;20.73;12.43;;;;;;;;;;4953691;28;20051;-66
2021/12/11 04:25:47;;;;;;;21.40;12.95;;;;;;;;;;4958825;28;20057;-66
2021/12/11 04:28:16;;;;;;;24.63;13.25;;;;;;;;;;4951157;28;20062;-67
2021/12/11 04:30:42;;;;;;;22.15;13.50;;;;;;;;;;4955831;28;20112;-67
2021/12/11 04:33:08;;;;;;;23.13;13.52;;;;;;;;;;4957806;28;20409;-66
2021/12/11 04:35:35;;;;;;;21.08;12.52;;;;;;;;;;4953137;28;20427;-67
2021/12/11 04:38:02;;;;;;;24.73;13.75;;;;;;;;;;4954807;28;20035;-67
2021/12/11 04:40:32;;;;;;;25.40;13.65;;;;;;;;;;4968913;28;20065;-67
2021/12/11 04:43:05;;;;;;;25.83;14.02;;;;;;;;;;4959179;28;20049;-66
2021/12/11 04:45:38;;;;;;;22.50;12.65;;;;;;;;;;4968539;28;20056;-66
2021/12/11 04:48:16;;;;;;;23.42;13.70;;;;;;;;;;4960190;28;20050;-66
2021/12/11 04:51:29;;;;;;;25.83;13.40;;;;;;;;;;4968654;28;20097;-66
2021/12/11 04:56:28;;;;;;;31.63;16.10;;;;;;;;;;4960410;28;20050;-66
2021/12/11 05:02:00;;;;;;;24.45;15.18;;;;;;;;;;4926256;28;20039;-67
2021/12/11 05:07:29;;;;;;;26.73;15.43;;;;;;;;;;4964625;28;20130;-66
2021/12/11 05:10:11;;;;;;;30.45;15.10;;;;;;;;;;4971782;28;20097;-66
2021/12/11 05:12:37;;;;;;;28.58;14.60;;;;;;;;;;4970165;28;20403;-66
2021/12/11 05:15:05;;;;;;;25.17;14.02;;;;;;;;;;4961106;28;20069;-66
2021/12/11 05:17:31;;;;;;;23.05;14.35;;;;;;;;;;4970594;28;20038;-66
2021/12/11 05:19:57;;;;;;;27.52;15.43;;;;;;;;;;4957141;28;20194;-66
2021/12/11 05:22:23;;;;;;;24.95;14.05;;;;;;;;;;4957114;28;20046;-67
2021/12/11 05:24:51;;;;;;;25.08;14.30;;;;;;;;;;4949390;28;20053;-66
2021/12/11 05:27:17;;;;;;;25.15;14.27;;;;;;;;;;4962263;28;20205;-66
2021/12/11 05:29:44;;;;;;;23.63;13.70;;;;;;;;;;4957733;28;20035;-67
2021/12/11 05:32:11;;;;;;;27.67;13.93;;;;;;;;;;4963017;28;20121;-66
2021/12/11 05:34:37;;;;;;;25.85;13.80;;;;;;;;;;4960830;28;20047;-67
2021/12/11 05:37:04;;;;;;;22.45;13.20;;;;;;;;;;4956364;28;20150;-66
2021/12/11 05:39:30;;;;;;;23.83;13.60;;;;;;;;;;4963737;28;20062;-66
2021/12/11 05:41:56;;;;;;;28.52;14.27;;;;;;;;;;4961813;28;20417;-66
2021/12/11 05:44:23;;;;;;;27.58;13.32;;;;;;;;;;4962543;28;20110;-66
2021/12/11 05:46:50;;;;;;;26.23;13.35;;;;;;;;;;4959683;28;20488;-66
2021/12/11 05:49:16;;;;;;;24.52;13.65;;;;;;;;;;4961721;28;20038;-66
2021/12/11 05:51:43;;;;;;;24.05;14.07;;;;;;;;;;4959004;28;20062;-66
2021/12/11 05:54:12;;;;;;;20.92;12.60;;;;;;;;;;4959964;28;20057;-66
2021/12/11 05:56:40;;;;;;;23.25;13.55;;;;;;;;;;4955790;28;20043;-66
2021/12/11 05:59:08;;;;;;;25.05;14.02;;;;;;;;;;4958439;28;20062;-67
2021/12/11 06:01:35;;;;;;;25.63;14.82;;;;;;;;;;4949823;28;20387;-67
2021/12/11 06:04:05;;;;;;;25.35;14.10;;;;;;;;;;4952910;28;20479;-66
2021/12/11 06:06:31;;;;;;;24.63;13.98;;;;;;;;;;4957087;28;20543;-67
2021/12/11 06:08:58;;;;;;;21.10;13.10;;;;;;;;;;4957376;28;20049;-67
2021/12/11 06:11:24;;;;;;;23.35;13.35;;;;;;;;;;4959705;28;20043;-66
2021/12/11 06:13:50;;;;;;;24.27;13.75;;;;;;;;;;4953064;28;20039;-67
2021/12/11 06:16:16;;;;;;;22.60;12.93;;;;;;;;;;4958939;28;20046;-67
2021/12/11 06:18:44;;;;;;;25.02;14.00;;;;;;;;;;4956604;28;20051;-66
2021/12/11 06:21:11;;;;;;;22.08;13.45;;;;;;;;;;4952597;28;20110;-67
2021/12/11 06:23:37;;;;;;;29.60;15.38;;;;;;;;;;4960933;28;20043;-67
2021/12/11 06:26:04;;;;;;;26.80;15.07;;;;;;;;;;4963215;28;20118;-66
2021/12/11 06:28:30;;;;;;;21.30;13.32;;;;;;;;;;4954705;28;20054;-67
2021/12/11 06:30:58;;;;;;;25.33;14.20;;;;;;;;;;4961182;28;20121;-66
2021/12/11 06:33:25;;;;;;;23.02;13.88;;;;;;;;;;4961659;28;20081;-66
2021/12/11 06:35:54;;;;;;;23.90;14.15;;;;;;;;;;4955573;28;20051;-66
2021/12/11 06:38:21;;;;;;;22.48;13.38;;;;;;;;;;4954189;28;20050;-67
2021/12/11 06:40:47;;;;;;;21.90;13.25;;;;;;;;;;4962100;28;20088;-67
2021/12/11 06:43:14;;;;;;;24.17;14.00;;;;;;;;;;4955901;28;20093;-66
2021/12/11 06:45:40;;;;;;;24.23;13.93;;;;;;;;;;4957702;28;20101;-67
2021/12/11 06:48:07;;;;;;;30.00;14.93;;;;;;;;;;4954688;28;20047;-66
2021/12/11 06:50:33;;;;;;;22.98;14.75;;;;;;;;;;4959041;28;20788;-67
2021/12/11 06:53:00;;;;;;;30.70;16.50;;;;;;;;;;4959185;28;20053;-67
2021/12/11 06:55:26;;;;;;;29.25;16.27;;;;;;;;;;4952598;28;20049;-67
2021/12/11 06:57:52;;;;;;;29.98;18.27;;;;;;;;;;4957847;28;20059;-67
2021/12/11 07:00:19;;;;;;;38.63;21.10;;;;;;;;;;4956794;28;20180;-67
2021/12/11 07:02:46;;;;;;;33.60;18.92;;;;;;;;;;4960879;28;20388;-67
2021/12/11 07:05:12;;;;;;;32.35;17.30;;;;;;;;;;4948837;28;20043;-67
2021/12/11 07:07:41;;;;;;;35.00;17.77;;;;;;;;;;4961382;28;20105;-67
2021/12/11 07:10:10;;;;;;;30.25;16.80;;;;;;;;;;4959482;28;20094;-66
2021/12/11 07:12:36;;;;;;;32.35;17.17;;;;;;;;;;4958425;28;20038;-67
2021/12/11 07:15:04;;;;;;;31.25;16.38;;;;;;;;;;4956433;28;20744;-67
2021/12/11 07:17:30;;;;;;;31.75;15.55;;;;;;;;;;4957803;28;20159;-67
2021/12/11 07:19:56;;;;;;;24.35;14.18;;;;;;;;;;4943207;28;20101;-68
2021/12/11 07:22:22;;;;;;;29.88;16.15;;;;;;;;;;4957200;28;20479;-70
2021/12/11 07:24:54;;;;;;;24.40;14.68;;;;;;;;;;4958118;28;20039;-70
2021/12/11 07:27:20;;;;;;;25.33;15.23;;;;;;;;;;4953622;28;20383;-70
2021/12/11 07:29:46;;;;;;;28.15;14.98;;;;;;;;;;4945056;28;20043;-70
2021/12/11 07:32:12;;;;;;;28.10;15.85;;;;;;;;;;4953519;28;20668;-70
2021/12/11 07:34:39;;;;;;;25.27;14.48;;;;;;;;;;4945361;28;20085;-70
2021/12/11 07:37:05;;;;;;;23.80;15.02;;;;;;;;;;4959219;28;20133;-70
2021/12/11 07:39:31;;;;;;;25.63;15.25;;;;;;;;;;4957158;28;20039;-71
2021/12/11 07:41:58;;;;;;;22.83;14.23;;;;;;;;;;4962251;28;20117;-70
2021/12/11 07:44:25;;;;;;;24.23;14.70;;;;;;;;;;4958483;28;20126;-71
2021/12/11 07:46:51;;;;;;;30.58;15.40;;;;;;;;;;4951957;28;20035;-71
2021/12/11 07:49:17;;;;;;;26.50;15.45;;;;;;;;;;4960768;28;20054;-71
2021/12/11 07:51:43;;;;;;;25.38;14.93;;;;;;;;;;4956120;28;20050;-70
2021/12/11 07:54:09;;;;;;;31.08;15.55;;;;;;;;;;4959824;28;20447;-70
2021/12/11 07:56:37;;;;;;;31.58;16.88;;;;;;;;;;4953161;28;20130;-70
2021/12/11 07:59:05;;;;;;;29.52;17.02;;;;;;;;;;4955636;28;20130;-71
2021/12/11 08:01:33;;;;;;;29.02;17.05;;;;;;;;;;4956875;28;20411;-71
2021/12/11 08:04:00;;;;;;;31.50;15.88;;;;;;;;;;4959784;28;20133;-71
2021/12/11 08:06:26;;;;;;;27.77;15.63;;;;;;;;;;4954549;28;20061;-70
2021/12/11 08:08:53;;;;;;;30.33;16.90;;;;;;;;;;4949310;28;20070;-71
2021/12/11 08:11:19;;;;;;;32.47;16.60;;;;;;;;;;4958812;28;20081;-70
2021/12/11 08:13:47;;;;;;;27.85;15.93;;;;;;;;;;4959359;28;20133;-70
2021/12/11 08:16:14;;;;;;;26.75;15.60;;;;;;;;;;4950970;28;20091;-70
2021/12/11 08:18:40;;;;;;;27.90;17.30;;;;;;;;;;4949645;28;20051;-70
2021/12/11 08:21:07;;;;;;;29.38;16.13;;;;;;;;;;4951020;28;20050;-71
2021/12/11 08:23:33;;;;;;;27.10;15.43;;;;;;;;;;4953877;28;20050;-71
2021/12/11 08:26:01;;;;;;;26.67;16.00;;;;;;;;;;4956791;28;20043;-70
2021/12/11 08:28:28;;;;;;;25.95;16.25;;;;;;;;;;4971502;28;20050;-71
2021/12/11 08:30:55;;;;;;;29.45;17.58;;;;;;;;;;4958154;28;20391;-71
2021/12/11 08:33:23;;;;;;;25.55;16.13;;;;;;;;;;4962015;28;20043;-71
2021/12/11 08:35:49;;;;;;;26.33;17.05;;;;;;;;;;4958803;28;20097;-71
2021/12/11 08:38:17;;;;;;;28.33;16.95;;;;;;;;;;4955811;28;20039;-70
2021/12/11 08:40:45;;;;;;;29.90;18.00;;;;;;;;;;4955554;28;20058;-70
2021/12/11 08:43:13;;;;;;;40.53;20.52;;;;;;;;;;4939432;28;20043;-70
2021/12/11 08:45:49;;;;;;;30.10;18.25;;;;;;;;;;4955964;28;20479;-71
2021/12/11 08:48:18;;;;;;;31.38;17.80;;;;;;;;;;4958819;28;20463;-71
2021/12/11 08:50:46;;;;;;;30.63;17.15;;;;;;;;;;4955606;28;20041;-70
2021/12/11 08:53:12;;;;;;;29.70;17.73;;;;;;;;;;4956499;28;20168;-70
2021/12/11 08:55:41;;;;;;;33.88;18.85;;;;;;;;;;4957885;28;20050;-71
2021/12/11 08:58:08;;;;;;;32.20;16.85;;;;;;;;;;4939821;28;20113;-69
2021/12/11 09:00:35;;;;;;;31.20;19.27;;;;;;;;;;4957105;28;20484;-72
2021/12/11 09:03:08;;;;;;;35.65;20.40;;;;;;;;;;4955567;28;20101;-71
2021/12/11 09:05:37;;;;;;;36.53;21.13;;;;;;;;;;4956472;28;20043;-71
2021/12/11 09:08:06;;;;;;;31.60;19.70;;;;;;;;;;4954554;28;20047;-72
2021/12/11 09:10:39;;;;;;;35.10;20.70;;;;;;;;;;4952233;28;20105;-72
2021/12/11 09:13:05;;;;;;;38.88;22.17;;;;;;;;;;4951905;28;20431;-71
2021/12/11 09:15:37;;;;;;;41.53;23.42;;;;;;;;;;4954845;28;20054;-71
2021/12/11 09:18:30;;;;;;;44.20;24.00;;;;;;;;;;4954133;28;20522;-71
2021/12/11 09:20:59;;;;;;;37.97;23.10;;;;;;;;;;4952876;28;20047;-71
2021/12/11 09:23:25;;;;;;;42.33;24.52;;;;;;;;;;4956049;28;20035;-72
2021/12/11 09:26:00;;;;;;;49.05;27.38;;;;;;;;;;4953677;28;20043;-72
2021/12/11 09:28:29;;;;;;;53.20;29.08;;;;;;;;;;4953114;28;20039;-71
2021/12/11 09:30:55;;;;;;;51.65;27.65;;;;;;;;;;4961499;28;20042;-72
2021/12/11 09:33:23;;;;;;;60.78;29.98;;;;;;;;;;4953706;28;20035;-71
2021/12/11 09:35:58;;;;;;;46.53;26.50;;;;;;;;;;4954719;28;20118;-71
2021/12/11 09:38:26;;;;;;;61.70;26.50;;;;;;;;;;4955751;28;20487;-72
2021/12/11 09:40:55;;;;;;;61.85;28.15;;;;;;;;;;4957952;28;21164;-73
2021/12/11 09:43:37;;;;;;;67.00;27.52;;;;;;;;;;4958512;28;20472;-72
2021/12/11 09:46:05;;;;;;;54.53;25.15;;;;;;;;;;4953741;28;20132;-72
2021/12/11 09:48:31;;;;;;;75.57;26.08;;;;;;;;;;4959872;28;20074;-72
2021/12/11 09:51:03;;;;;;;86.38;28.13;;;;;;;;;;4965839;28;20060;-72
2021/12/11 09:53:32;;;;;;;67.75;26.23;;;;;;;;;;4960125;28;20079;-73
2021/12/11 09:55:59;;;;;;;76.43;27.90;;;;;;;;;;4961586;28;20057;-72
2021/12/11 09:58:28;;;;;;;49.47;25.10;;;;;;;;;;4943094;28;20456;-72
2021/12/11 10:00:54;;;;;;;67.07;25.95;;;;;;;;;;4962551;28;20047;-72
2021/12/11 10:03:23;;;;;;;45.05;25.05;;;;;;;;;;4958804;28;20126;-72
2021/12/11 10:06:10;;;;;;;47.65;25.95;;;;;;;;;;4958219;28;20066;-71
2021/12/11 10:08:40;;;;;;;58.50;28.88;;;;;;;;;;4957013;28;20094;-72
2021/12/11 10:11:18;;;;;;;53.13;29.73;;;;;;;;;;4965413;28;20057;-72
2021/12/11 10:13:52;;;;;;;44.75;27.13;;;;;;;;;;4960066;28;20365;-72
2021/12/11 10:16:20;;;;;;;48.22;28.08;;;;;;;;;;4965055;28;20146;-72
2021/12/11 10:18:46;;;;;;;51.45;29.80;;;;;;;;;;4954990;28;20112;-72
2021/12/11 10:21:25;;;;;;;50.97;29.48;;;;;;;;;;4963494;28;20123;-72
2021/12/11 10:23:53;;;;;;;59.20;30.60;;;;;;;;;;4957387;28;20035;-72
2021/12/11 10:26:20;;;;;;;53.33;30.95;;;;;;;;;;4955741;28;20046;-72
2021/12/11 10:28:51;;;;;;;52.45;30.38;;;;;;;;;;4955131;28;20042;-72
2021/12/11 10:31:19;;;;;;;49.60;29.92;;;;;;;;;;4957829;28;20047;-72
2021/12/11 10:33:45;;;;;;;47.88;29.55;;;;;;;;;;4954915;28;20049;-72
2021/12/11 10:36:13;;;;;;;47.38;28.48;;;;;;;;;;4951968;28;20044;-72
2021/12/11 10:38:41;;;;;;;48.95;29.48;;;;;;;;;;4960673;28;20043;-72
2021/12/11 10:41:08;;;;;;;47.25;28.60;;;;;;;;;;4964494;28;20214;-72
2021/12/11 10:43:42;;;;;;;46.38;28.45;;;;;;;;;;4956069;28;20047;-72
2021/12/11 10:46:10;;;;;;;52.40;31.08;;;;;;;;;;4958479;28;20483;-73
2021/12/11 10:48:37;;;;;;;51.25;28.10;;;;;;;;;;4975362;28;20167;-72
2021/12/11 10:51:18;;;;;;;49.38;27.55;;;;;;;;;;4954534;28;20098;-72
2021/12/11 10:53:46;;;;;;;51.72;30.38;;;;;;;;;;4970817;28;20043;-72
2021/12/11 10:56:13;;;;;;;54.13;30.38;;;;;;;;;;4937498;28;20047;-72
2021/12/11 10:58:41;;;;;;;48.25;27.48;;;;;;;;;;4956047;28;20074;-72
2021/12/11 11:01:16;;;;;;;46.85;27.73;;;;;;;;;;4953820;28;20161;-72
2021/12/11 11:03:45;;;;;;;49.15;28.20;;;;;;;;;;4950307;28;20390;-72
2021/12/11 11:06:12;;;;;;;51.92;29.35;;;;;;;;;;4959379;28;20050;-73
2021/12/11 11:08:38;;;;;;;41.33;25.08;;;;;;;;;;4953690;28;20049;-72
2021/12/11 11:11:09;;;;;;;49.63;26.55;;;;;;;;;;4951808;28;20049;-72
2021/12/11 11:13:35;;;;;;;46.15;26.23;;;;;;;;;;4953214;28;20383;-72
2021/12/11 11:16:02;;;;;;;49.92;26.98;;;;;;;;;;4953125;28;20479;-72
2021/12/11 11:18:29;;;;;;;45.33;26.88;;;;;;;;;;4954754;28;20039;-72
2021/12/11 11:21:01;;;;;;;52.22;28.90;;;;;;;;;;4956872;28;20039;-72
2021/12/11 11:23:27;;;;;;;50.33;27.98;;;;;;;;;;4945664;28;20105;-72
2021/12/11 11:25:54;;;;;;;56.28;29.65;;;;;;;;;;4953941;28;20043;-72
2021/12/11 11:28:21;;;;;;;54.42;28.20;;;;;;;;;;4956907;28;20039;-72
2021/12/11 11:30:50;;;;;;;56.17;28.67;;;;;;;;;;4937898;28;20047;-72
2021/12/11 11:33:16;;;;;;;48.72;26.92;;;;;;;;;;4962509;28;20476;-72
2021/12/11 11:35:44;;;;;;;51.65;27.58;;;;;;;;;;4967446;28;20035;-72
2021/12/11 11:38:15;;;;;;;44.35;26.92;;;;;;;;;;4952895;28;20043;-72
2021/12/11 11:40:43;;;;;;;51.55;26.85;;;;;;;;;;4957477;28;20059;-73
2021/12/11 11:43:10;;;;;;;55.58;27.20;;;;;;;;;;4954752;28;20050;-72
2021/12/11 11:45:37;;;;;;;50.92;26.48;;;;;;;;;;4952105;28;20491;-72
2021/12/11 11:48:03;;;;;;;46.90;26.52;;;;;;;;;;4957180;28;20507;-72
2021/12/11 11:50:31;;;;;;;47.95;27.10;;;;;;;;;;4957962;28;20074;-72
2021/12/11 11:52:58;;;;;;;53.65;27.20;;;;;;;;;;4963440;28;20043;-72
2021/12/11 11:55:27;;;;;;;52.20;27.38;;;;;;;;;;4942402;28;20034;-72
2021/12/11 11:57:54;;;;;;;47.78;26.50;;;;;;;;;;4956240;28;20066;-72
2021/12/11 12:00:23;;;;;;;46.15;26.55;;;;;;;;;;4976890;28;20122;-72
2021/12/11 12:02:49;;;;;;;48.78;27.40;;;;;;;;;;4954795;28;20376;-72
2021/12/11 12:05:15;;;;;;;49.40;27.45;;;;;;;;;;4954498;28;20395;-72
2021/12/11 12:07:42;;;;;;;53.95;28.35;;;;;;;;;;4953056;28;20077;-72
2021/12/11 12:10:12;;;;;;;46.17;26.23;;;;;;;;;;4956799;28;20182;-72
2021/12/11 12:12:38;;;;;;;52.55;26.60;;;;;;;;;;4965087;28;20065;-72
2021/12/11 12:15:06;;;;;;;54.45;28.67;;;;;;;;;;4963557;28;20039;-72
2021/12/11 12:17:32;;;;;;;55.15;28.30;;;;;;;;;;4952390;28;20066;-72
2021/12/11 12:19:59;;;;;;;52.13;27.13;;;;;;;;;;4954780;28;20050;-72
2021/12/11 12:22:26;;;;;;;50.25;27.25;;;;;;;;;;4949901;28;20452;-72
2021/12/11 12:24:54;;;;;;;50.72;27.88;;;;;;;;;;4979676;28;20108;-72
2021/12/11 12:27:21;;;;;;;52.58;28.60;;;;;;;;;;4946402;28;20039;-73
2021/12/11 12:29:48;;;;;;;52.00;28.40;;;;;;;;;;4951332;28;20537;-72
2021/12/11 12:32:16;;;;;;;52.00;27.88;;;;;;;;;;4951143;28;20047;-72
2021/12/11 12:34:43;;;;;;;52.75;28.35;;;;;;;;;;4955490;28;20047;-72
2021/12/11 12:37:09;;;;;;;54.20;27.95;;;;;;;;;;4958707;28;20138;-73
2021/12/11 12:39:38;;;;;;;54.88;30.42;;;;;;;;;;4960187;28;20137;-72
2021/12/11 12:42:16;;;;;;;43.50;25.23;;;;;;;;;;4952132;28;20348;-73
2021/12/11 12:44:42;;;;;;;43.95;26.05;;;;;;;;;;4952562;28;20220;-72
2021/12/11 12:47:10;;;;;;;59.55;28.77;;;;;;;;;;4950956;28;20051;-72
2021/12/11 12:49:40;;;;;;;54.63;28.80;;;;;;;;;;4956765;28;20121;-72
2021/12/11 12:52:08;;;;;;;50.00;28.02;;;;;;;;;;4952403;28;20057;-72
2021/12/11 12:54:34;;;;;;;50.03;28.00;;;;;;;;;;4950379;28;20051;-72
2021/12/11 12:57:12;;;;;;;46.75;26.75;;;;;;;;;;4953870;28;20129;-73
2021/12/11 12:59:39;;;;;;;56.13;27.40;;;;;;;;;;4955453;28;20523;-73
2021/12/11 13:02:10;;;;;;;53.05;27.63;;;;;;;;;;4969618;28;20383;-73
2021/12/11 13:04:39;;;;;;;56.90;28.85;;;;;;;;;;4952113;28;20035;-73
2021/12/11 13:07:07;;;;;;;53.45;28.00;;;;;;;;;;4953048;28;20082;-72
2021/12/11 13:09:41;;;;;;;52.72;28.33;;;;;;;;;;4961597;28;20117;-72
2021/12/11 13:12:13;;;;;;;51.63;27.42;;;;;;;;;;4955355;28;20043;-72
2021/12/11 13:14:40;;;;;;;51.30;26.75;;;;;;;;;;4953557;28;20106;-72
2021/12/11 13:17:27;;;;;;;49.70;26.92;;;;;;;;;;4951147;28;20067;-72
2021/12/11 13:19:55;;;;;;;53.10;27.73;;;;;;;;;;4958510;28;20051;-72
2021/12/11 13:22:40;;;;;;;55.10;27.58;;;;;;;;;;4958225;28;20106;-73
2021/12/11 13:25:10;;;;;;;48.83;25.92;;;;;;;;;;4955327;28;20043;-72
2021/12/11 13:27:37;;;;;;;45.67;26.35;;;;;;;;;;4956764;28;20062;-73
2021/12/11 13:30:06;;;;;;;45.80;26.42;;;;;;;;;;4957905;28;20122;-72
2021/12/11 13:32:34;;;;;;;39.83;24.85;;;;;;;;;;4958114;28;20043;-73
2021/12/11 13:35:02;;;;;;;42.95;26.42;;;;;;;;;;4958089;28;20039;-72
2021/12/11 13:37:29;;;;;;;42.83;25.80;;;;;;;;;;4959916;28;20055;-73
2021/12/11 13:39:56;;;;;;;40.97;23.83;;;;;;;;;;4953573;28;20133;-73
2021/12/11 13:42:28;;;;;;;40.75;25.67;;;;;;;;;;4950874;28;20055;-72
2021/12/11 13:44:56;;;;;;;41.80;24.52;;;;;;;;;;4953183;28;20479;-72
2021/12/11 13:47:24;;;;;;;44.45;25.08;;;;;;;;;;4953409;28;20061;-72
2021/12/11 13:49:51;;;;;;;47.53;24.63;;;;;;;;;;4957229;28;20391;-72
2021/12/11 13:52:17;;;;;;;66.25;24.60;;;;;;;;;;4964881;28;20053;-72
2021/12/11 13:54:44;;;;;;;53.15;25.15;;;;;;;;;;4958637;28;20047;-72
2021/12/11 13:57:14;;;;;;;51.22;24.02;;;;;;;;;;4976790;28;20497;-72
2021/12/11 13:59:43;;;;;;;51.70;23.45;;;;;;;;;;4948632;28;20133;-72
2021/12/11 14:02:09;;;;;;;105.13;28.42;;;;;;;;;;4960703;28;20579;-73
2021/12/11 14:04:37;;;;;;;90.57;27.85;;;;;;;;;;4955550;28;20054;-73
2021/12/11 14:07:18;;;;;;;53.17;25.52;;;;;;;;;;4954005;28;20046;-71
2021/12/11 14:09:48;;;;;;;69.97;25.83;;;;;;;;;;4955189;28;20062;-71
2021/12/11 14:12:14;;;;;;;96.55;26.08;;;;;;;;;;4963030;28;20051;-71
2021/12/11 14:14:41;;;;;;;130.65;30.17;;;;;;;;;;4937181;28;20145;-72
2021/12/11 14:17:08;;;;;;;54.38;24.85;;;;;;;;;;4956221;28;20039;-71
2021/12/11 14:19:35;;;;;;;90.15;27.42;;;;;;;;;;4953048;28;20562;-71
2021/12/11 14:22:02;;;;;;;96.05;26.33;;;;;;;;;;4956990;28;20109;-72
2021/12/11 14:24:29;;;;;;;67.88;24.45;;;;;;;;;;4945080;28;20504;-71
2021/12/11 14:26:55;;;;;;;94.25;27.00;;;;;;;;;;4959069;28;20050;-71
2021/12/11 14:29:21;;;;;;;68.53;24.90;;;;;;;;;;4957326;28;20623;-71
2021/12/11 14:31:47;;;;;;;99.05;28.48;;;;;;;;;;4954532;28;20054;-71
2021/12/11 14:34:13;;;;;;;117.32;27.92;;;;;;;;;;4954517;28;20047;-71
2021/12/11 14:36:40;;;;;;;86.97;25.58;;;;;;;;;;4950754;28;20039;-72